Time;durP1;ratioP1;P1;durP2;ratioP2;P2;SDS_P1;SDS_P2;PMS_P1;PMS_P2;Temp;Humidity;BMP_temperature;BMP_pressure;BME280_temperature;BME280_humidity;BME280_pressure;Samples;Min_cycle;Max_cycle;Signal;HPM_P1;HPM_P2
2023/03/19 00:02:03;;;;;;;10.77;3.03;;;;;;;9.99;100.00;100895.97;5045261;28;20037;-76
2023/03/19 00:04:29;;;;;;;7.85;2.70;;;;;;;10.00;100.00;100894.13;5046311;28;20139;-80
2023/03/19 00:06:54;;;;;;;7.95;3.17;;;;;;;9.99;100.00;100898.66;5047079;28;20036;-76
2023/03/19 00:09:20;;;;;;;10.77;3.45;;;;;;;9.97;100.00;100897.88;5049490;28;20036;-76
2023/03/19 00:11:46;;;;;;;8.85;2.95;;;;;;;9.95;100.00;100892.63;5042390;28;20120;-79
2023/03/19 00:14:12;;;;;;;9.00;2.50;;;;;;;9.94;100.00;100893.63;5046666;28;20539;-76
2023/03/19 00:16:37;;;;;;;6.28;2.70;;;;;;;9.94;100.00;100903.47;5048523;28;20028;-76
2023/03/19 00:19:03;;;;;;;8.35;2.45;;;;;;;9.94;100.00;100898.09;5042356;28;20588;-77
2023/03/19 00:21:29;;;;;;;8.15;2.80;;;;;;;9.93;100.00;100902.63;5036139;28;20028;-76
2023/03/19 00:23:59;;;;;;;7.07;2.78;;;;;;;9.93;100.00;100901.78;5043516;28;20026;-76
2023/03/19 00:26:28;;;;;;;10.45;3.35;;;;;;;9.92;100.00;100905.41;5053171;28;20025;-77
2023/03/19 00:28:54;;;;;;;7.55;2.75;;;;;;;9.90;100.00;100912.75;5057378;28;20380;-76
2023/03/19 00:31:21;;;;;;;11.77;3.10;;;;;;;9.89;100.00;100909.16;5065036;28;20531;-76
2023/03/19 00:33:46;;;;;;;12.13;3.17;;;;;;;9.90;100.00;100902.00;5060463;28;20032;-76
2023/03/19 00:36:12;;;;;;;9.43;3.42;;;;;;;9.87;100.00;100907.56;5057136;28;20033;-77
2023/03/19 00:38:38;;;;;;;9.35;2.85;;;;;;;9.85;100.00;100904.13;5047214;28;20021;-75
2023/03/19 00:41:06;;;;;;;11.45;3.60;;;;;;;9.84;100.00;100908.66;5049927;28;20031;-75
2023/03/19 00:43:31;;;;;;;10.10;3.53;;;;;;;9.83;100.00;100901.56;5056761;28;20036;-75
2023/03/19 00:45:57;;;;;;;8.93;3.05;;;;;;;9.83;100.00;100906.06;5059841;28;20021;-76
2023/03/19 00:48:22;;;;;;;7.80;2.92;;;;;;;9.83;100.00;100906.06;5053134;28;20016;-76
2023/03/19 00:50:48;;;;;;;8.27;3.30;;;;;;;9.83;100.00;100909.59;5064570;28;20032;-75
2023/03/19 00:53:13;;;;;;;12.45;3.60;;;;;;;9.81;100.00;100908.88;5053283;28;20465;-76
2023/03/19 00:55:39;;;;;;;10.88;3.22;;;;;;;9.82;100.00;100912.41;5065056;28;20032;-75
2023/03/19 00:58:05;;;;;;;16.45;4.10;;;;;;;9.80;100.00;100901.78;5047295;28;20056;-76
2023/03/19 01:00:32;;;;;;;12.18;3.83;;;;;;;9.79;100.00;100900.91;5062338;28;20100;-75
2023/03/19 01:02:58;;;;;;;10.25;3.55;;;;;;;9.75;100.00;100904.78;5067415;28;20032;-76
2023/03/19 01:05:23;;;;;;;13.65;3.72;;;;;;;9.73;100.00;100906.69;5060936;28;20510;-77
2023/03/19 01:07:49;;;;;;;12.10;3.65;;;;;;;9.73;100.00;100913.91;5059553;28;20539;-76
2023/03/19 01:10:20;;;;;;;10.00;3.45;;;;;;;9.71;100.00;100905.09;5048030;28;20041;-76
2023/03/19 01:12:45;;;;;;;13.10;4.03;;;;;;;9.72;100.00;100913.03;5050748;28;20039;-76
2023/03/19 01:15:11;;;;;;;12.00;3.60;;;;;;;9.73;100.00;100909.38;5064591;28;20017;-75
2023/03/19 01:17:37;;;;;;;10.38;3.65;;;;;;;9.72;100.00;100910.34;5058975;28;20491;-75
2023/03/19 01:20:04;;;;;;;18.25;4.82;;;;;;;9.72;100.00;100905.00;5061184;28;20391;-77
2023/03/19 01:22:29;;;;;;;15.52;4.55;;;;;;;9.71;100.00;100908.63;5064174;28;20108;-76
2023/03/19 01:24:54;;;;;;;10.55;4.15;;;;;;;9.70;100.00;100911.41;5060799;28;20084;-75
2023/03/19 01:27:20;;;;;;;11.15;3.88;;;;;;;9.71;100.00;100913.16;5056492;28;20037;-76
2023/03/19 01:29:46;;;;;;;14.25;4.32;;;;;;;9.71;100.00;100903.25;5046606;28;20318;-76
2023/03/19 01:32:11;;;;;;;11.43;3.70;;;;;;;9.70;100.00;100911.41;5059959;28;20427;-75
2023/03/19 01:34:36;;;;;;;13.23;3.92;;;;;;;9.70;100.00;100909.59;5061714;28;20070;-76
2023/03/19 01:37:02;;;;;;;11.48;3.95;;;;;;;9.70;100.00;100912.28;5051969;28;20029;-76
2023/03/19 01:39:27;;;;;;;12.27;4.13;;;;;;;9.71;100.00;100908.63;5054809;28;20033;-76
2023/03/19 01:41:53;;;;;;;12.02;4.05;;;;;;;9.71;100.00;100900.59;5058170;28;20028;-76
2023/03/19 01:44:33;;;;;;;16.35;4.40;;;;;;;9.73;100.00;100911.22;5047792;28;20106;-78
2023/03/19 01:47:01;;;;;;;16.30;4.70;;;;;;;9.72;100.00;100907.69;5063386;28;20059;-76
2023/03/19 01:49:29;;;;;;;13.23;4.43;;;;;;;9.71;100.00;100911.31;5053937;28;20048;-77
2023/03/19 01:51:57;;;;;;;12.98;4.10;;;;;;;9.71;100.00;100911.31;5061490;28;20476;-75
2023/03/19 01:54:27;;;;;;;12.68;4.07;;;;;;;9.72;100.00;100909.47;5067553;28;20024;-75
2023/03/19 01:57:01;;;;;;;15.38;4.45;;;;;;;9.73;100.00;100913.91;5058473;28;20032;-75
2023/03/19 01:59:35;;;;;;;14.23;4.43;;;;;;;9.73;100.00;100916.56;5055117;28;20399;-76
2023/03/19 02:02:09;;;;;;;12.13;4.55;;;;;;;9.72;100.00;100907.69;5048866;28;20344;-75
2023/03/19 02:04:37;;;;;;;15.07;4.45;;;;;;;9.74;100.00;100911.09;5057403;28;20029;-75
2023/03/19 02:07:04;;;;;;;14.10;4.47;;;;;;;9.72;100.00;100909.47;5064025;28;20399;-75
2023/03/19 02:09:30;;;;;;;10.60;4.20;;;;;;;9.73;100.00;100914.75;5059033;28;20362;-76
2023/03/19 02:11:56;;;;;;;14.23;4.90;;;;;;;9.73;100.00;100905.84;5053583;28;20354;-75
2023/03/19 02:14:22;;;;;;;15.15;4.72;;;;;;;9.73;100.00;100909.38;5056731;28;20036;-76
2023/03/19 02:16:47;;;;;;;17.92;5.43;;;;;;;9.73;100.00;100912.06;5060120;28;20399;-75
2023/03/19 02:19:18;;;;;;;12.68;4.45;;;;;;;9.72;100.00;100899.63;5044904;28;20048;-76
2023/03/19 02:21:43;;;;;;;15.68;4.93;;;;;;;9.72;100.00;100905.00;5059806;28;20048;-76
2023/03/19 02:24:20;;;;;;;14.82;4.85;;;;;;;9.70;100.00;100904.22;5061444;28;20024;-75
2023/03/19 02:26:46;;;;;;;15.65;5.18;;;;;;;9.69;100.00;100915.91;5055302;28;20104;-76
2023/03/19 02:29:12;;;;;;;15.30;5.10;;;;;;;9.69;100.00;100921.28;5063360;28;20498;-76
2023/03/19 02:31:38;;;;;;;13.75;4.93;;;;;;;9.69;100.00;100920.44;5060668;28;20043;-75
2023/03/19 02:34:12;;;;;;;12.98;5.10;;;;;;;9.70;100.00;100914.94;5054652;28;20025;-75
2023/03/19 02:36:41;;;;;;;14.45;4.82;;;;;;;9.69;100.00;100913.22;5051436;28;20017;-75
2023/03/19 02:39:22;;;;;;;13.70;4.90;;;;;;;9.70;100.00;100909.59;5058377;28;20452;-76
2023/03/19 02:41:49;;;;;;;16.38;4.95;;;;;;;9.69;100.00;100907.00;5063751;28;20020;-76
2023/03/19 02:44:18;;;;;;;13.57;4.72;;;;;;;9.70;100.00;100914.09;5054609;28;20079;-75
2023/03/19 02:46:44;;;;;;;14.07;5.22;;;;;;;9.70;100.00;100917.63;5059996;28;20032;-76
2023/03/19 02:49:10;;;;;;;15.30;5.75;;;;;;;9.70;100.00;100923.00;5059742;28;20099;-77
2023/03/19 02:51:36;;;;;;;15.05;4.90;;;;;;;9.71;100.00;100921.19;5059338;28;20111;-77
2023/03/19 02:54:02;;;;;;;15.70;5.25;;;;;;;9.72;100.00;100928.25;5062636;28;20025;-75
2023/03/19 02:56:35;;;;;;;16.83;5.65;;;;;;;9.72;100.00;100921.09;5055886;28;20032;-76
2023/03/19 02:59:00;;;;;;;15.50;5.40;;;;;;;9.70;100.00;100920.31;5059541;28;20100;-76
2023/03/19 03:01:25;;;;;;;14.57;5.43;;;;;;;9.70;100.00;100923.00;5049189;28;20555;-75
2023/03/19 03:03:51;;;;;;;19.42;6.43;;;;;;;9.69;100.00;100923.97;5051641;28;20028;-76
2023/03/19 03:06:16;;;;;;;15.45;4.78;;;;;;;9.67;100.00;100928.59;5035291;28;20127;-76
2023/03/19 03:08:42;;;;;;;16.58;6.05;;;;;;;9.68;100.00;100930.31;5055945;28;20108;-76
2023/03/19 03:11:08;;;;;;;16.25;5.65;;;;;;;9.70;100.00;100936.44;5041450;28;20031;-75
2023/03/19 03:13:33;;;;;;;19.25;5.43;;;;;;;9.70;100.00;100933.75;5035090;28;20032;-77
2023/03/19 03:15:59;;;;;;;16.40;5.68;;;;;;;9.68;100.00;100927.63;5071578;28;20950;-76
2023/03/19 03:18:24;;;;;;;18.30;6.03;;;;;;;9.66;100.00;100924.16;5060501;28;20479;-75
2023/03/19 03:20:51;;;;;;;14.27;5.43;;;;;;;9.64;100.00;100920.75;5046253;28;20040;-75
2023/03/19 03:23:16;;;;;;;17.52;5.53;;;;;;;9.64;100.00;100926.13;5064792;28;20043;-76
2023/03/19 03:25:41;;;;;;;15.63;5.82;;;;;;;9.61;100.00;100927.19;5056970;28;20028;-76
2023/03/19 03:28:07;;;;;;;15.90;5.82;;;;;;;9.59;100.00;100926.44;5059538;28;20399;-75
2023/03/19 03:30:32;;;;;;;14.82;5.78;;;;;;;9.56;100.00;100931.13;5051791;28;20035;-76
2023/03/19 03:32:58;;;;;;;15.63;5.10;;;;;;;9.53;100.00;100925.97;5060391;28;20057;-76
2023/03/19 03:35:26;;;;;;;15.52;5.38;;;;;;;9.46;100.00;100925.56;5067509;28;20098;-76
2023/03/19 03:37:51;;;;;;;16.15;5.90;;;;;;;9.38;100.00;100918.00;5061429;28;20441;-75
2023/03/19 03:40:17;;;;;;;19.02;5.65;;;;;;;9.33;100.00;100920.16;5063813;28;20020;-76
2023/03/19 03:42:43;;;;;;;15.40;5.10;;;;;;;9.27;100.00;100928.59;5065072;28;20051;-77
2023/03/19 03:45:09;;;;;;;12.55;4.95;;;;;;;9.22;100.00;100933.41;5083219;28;20456;-76
2023/03/19 03:47:36;;;;;;;15.82;5.88;;;;;;;9.19;100.00;100936.28;5060271;28;20029;-75
2023/03/19 03:50:03;;;;;;;15.15;5.30;;;;;;;9.16;100.00;100934.66;5066535;28;20084;-77
2023/03/19 03:52:30;;;;;;;16.38;5.80;;;;;;;9.14;100.00;100946.47;5060158;28;20056;-75
2023/03/19 03:54:59;;;;;;;15.38;5.72;;;;;;;9.10;100.00;100938.59;5063748;28;20032;-76
2023/03/19 03:57:25;;;;;;;19.40;5.87;;;;;;;9.11;100.00;100944.84;5042926;28;20093;-76
2023/03/19 03:59:50;;;;;;;16.85;6.38;;;;;;;9.05;100.00;100938.06;5058671;28;20044;-76
2023/03/19 04:02:15;;;;;;;15.77;5.50;;;;;;;9.03;100.00;100942.66;5042161;28;20021;-75
2023/03/19 04:04:41;;;;;;;15.95;5.68;;;;;;;9.01;100.00;100947.25;5055584;28;20028;-76
2023/03/19 04:07:07;;;;;;;14.73;5.90;;;;;;;8.98;100.00;100944.78;5065100;28;20035;-76
2023/03/19 04:09:32;;;;;;;16.40;5.13;;;;;;;8.91;100.00;100944.31;5059101;28;20484;-79
2023/03/19 04:11:58;;;;;;;16.92;6.13;;;;;;;8.87;100.00;100942.81;5060041;28;20488;-76
2023/03/19 04:14:23;;;;;;;20.60;7.22;;;;;;;8.84;100.00;100939.44;5047251;28;20071;-75
2023/03/19 04:16:48;;;;;;;17.75;5.97;;;;;;;8.78;100.00;100939.84;5056213;28;20214;-75
2023/03/19 04:19:14;;;;;;;16.67;5.90;;;;;;;8.73;100.00;100937.47;5065721;28;20041;-76
2023/03/19 04:21:40;;;;;;;16.85;6.25;;;;;;;8.70;100.00;100943.03;5065273;28;20044;-75
2023/03/19 04:24:05;;;;;;;18.30;6.13;;;;;;;8.66;100.00;100944.19;5056359;28;20028;-76
2023/03/19 04:26:30;;;;;;;19.33;6.60;;;;;;;8.64;100.00;100938.94;5054165;28;20025;-76
2023/03/19 04:28:57;;;;;;;17.65;6.53;;;;;;;8.61;100.00;100949.84;5054438;28;20119;-75
2023/03/19 04:31:23;;;;;;;16.95;6.60;;;;;;;8.60;100.00;100947.25;5061364;28;20028;-75
2023/03/19 04:33:48;;;;;;;21.70;6.88;;;;;;;8.59;100.00;100946.38;5053393;28;20487;-76
2023/03/19 04:36:14;;;;;;;17.90;6.22;;;;;;;8.56;100.00;100939.41;5064286;28;20028;-77
2023/03/19 04:38:39;;;;;;;18.48;6.28;;;;;;;8.49;100.00;100938.09;5063816;28;20048;-75
2023/03/19 04:41:04;;;;;;;15.80;5.90;;;;;;;8.45;100.00;100941.03;5067436;28;20055;-76
2023/03/19 04:43:30;;;;;;;18.27;5.75;;;;;;;8.42;100.00;100943.88;5057002;28;20499;-75
2023/03/19 04:45:55;;;;;;;18.65;6.75;;;;;;;8.37;100.00;100945.00;5055458;28;20491;-76
2023/03/19 04:48:21;;;;;;;16.00;6.22;;;;;;;8.35;100.00;100943.41;5063830;28;20037;-76
2023/03/19 04:50:50;;;;;;;17.42;6.20;;;;;;;8.32;100.00;100951.63;5053993;28;20029;-76
2023/03/19 04:53:16;;;;;;;21.00;6.80;;;;;;;8.32;100.00;100948.97;5059137;28;20032;-76
2023/03/19 04:55:41;;;;;;;19.20;6.63;;;;;;;8.26;100.00;100943.97;5049474;28;20381;-75
2023/03/19 04:58:08;;;;;;;16.20;5.82;;;;;;;8.26;100.00;100954.66;5057058;28;20032;-76
2023/03/19 05:00:33;;;;;;;17.08;6.15;;;;;;;8.22;100.00;100954.03;5062945;28;20041;-75
2023/03/19 05:02:59;;;;;;;19.42;7.38;;;;;;;8.20;100.00;100961.28;5059319;28;20024;-76
2023/03/19 05:05:25;;;;;;;17.02;6.18;;;;;;;8.17;100.00;100969.50;5065229;28;20029;-77
2023/03/19 05:07:50;;;;;;;17.15;6.13;;;;;;;8.15;100.00;100971.41;5054131;28;20048;-76
2023/03/19 05:10:16;;;;;;;18.05;6.88;;;;;;;8.12;100.00;100974.28;5062179;28;20021;-76
2023/03/19 05:12:41;;;;;;;17.88;7.00;;;;;;;8.11;100.00;100973.44;5048039;28;20488;-76
2023/03/19 05:15:07;;;;;;;18.67;6.75;;;;;;;8.12;100.00;100974.28;5059264;28;20085;-76
2023/03/19 05:17:32;;;;;;;18.10;6.93;;;;;;;8.12;100.00;100979.63;5064494;28;20045;-80
2023/03/19 05:19:58;;;;;;;18.38;7.68;;;;;;;8.09;100.00;100977.16;5059481;28;20119;-76
2023/03/19 05:22:26;;;;;;;20.20;8.20;;;;;;;8.05;100.00;100974.66;5067077;28;20032;-77
2023/03/19 05:24:51;;;;;;;23.60;9.50;;;;;;;8.01;100.00;100975.78;5056034;28;20574;-76
2023/03/19 05:27:17;;;;;;;22.25;9.02;;;;;;;8.01;100.00;100983.81;5059779;28;20115;-77
2023/03/19 05:29:42;;;;;;;19.40;7.07;;;;;;;7.99;100.00;100992.88;5058306;28;20029;-76
2023/03/19 05:32:09;;;;;;;20.52;7.43;;;;;;;7.92;100.00;100983.50;5060683;28;20400;-75
2023/03/19 05:34:34;;;;;;;19.70;7.78;;;;;;;7.86;100.00;100995.44;5063247;28;20012;-76
2023/03/19 05:37:00;;;;;;;18.90;7.28;;;;;;;7.84;100.00;100987.50;5047865;28;20358;-76
2023/03/19 05:39:25;;;;;;;19.80;7.00;;;;;;;7.79;100.00;100988.72;5066061;28;20111;-76
2023/03/19 05:41:51;;;;;;;18.40;6.68;;;;;;;7.72;100.00;100993.59;5057354;28;20039;-76
2023/03/19 05:44:16;;;;;;;20.55;6.82;;;;;;;7.65;100.00;100993.06;5054575;28;20025;-75
2023/03/19 05:46:42;;;;;;;16.67;6.30;;;;;;;7.60;100.00;100988.94;5059887;28;20055;-75
2023/03/19 05:49:08;;;;;;;18.05;6.55;;;;;;;7.58;100.00;100993.53;5061732;28;20078;-75
2023/03/19 05:51:33;;;;;;;19.42;7.20;;;;;;;7.52;100.00;100997.44;5062259;28;20025;-76
2023/03/19 05:53:59;;;;;;;19.27;7.60;;;;;;;7.47;100.00;100996.84;5061117;28;20028;-76
2023/03/19 05:56:24;;;;;;;19.05;7.07;;;;;;;7.43;100.00;100995.28;5055965;28;20250;-76
2023/03/19 05:58:50;;;;;;;21.75;7.15;;;;;;;7.42;100.00;101002.44;5056388;28;20040;-75
2023/03/19 06:01:15;;;;;;;17.42;6.32;;;;;;;7.40;100.00;100995.47;5055276;28;20029;-76
2023/03/19 06:03:41;;;;;;;18.70;7.22;;;;;;;7.37;100.00;101004.53;5061846;28;20658;-76
2023/03/19 06:06:06;;;;;;;17.58;7.32;;;;;;;7.35;100.00;101011.78;5057344;28;20334;-76
2023/03/19 06:08:32;;;;;;;17.02;6.65;;;;;;;7.32;100.00;101012.81;5049524;28;20095;-76
2023/03/19 06:10:58;;;;;;;19.73;7.20;;;;;;;7.30;100.00;101014.69;5057708;28;20392;-76
2023/03/19 06:13:26;;;;;;;20.40;7.68;;;;;;;7.32;100.00;101018.16;5060495;28;20028;-75
2023/03/19 06:15:51;;;;;;;17.98;6.80;;;;;;;7.32;100.00;101018.16;5065506;28;20033;-76
2023/03/19 06:18:17;;;;;;;20.33;7.43;;;;;;;7.33;100.00;101029.72;5052069;28;20086;-78
2023/03/19 06:20:43;;;;;;;19.25;7.00;;;;;;;7.34;100.00;101020.75;5067094;28;20021;-75
2023/03/19 06:23:08;;;;;;;17.85;6.85;;;;;;;7.37;100.00;101030.41;5054284;28;20499;-76
2023/03/19 06:25:34;;;;;;;19.83;7.63;;;;;;;7.46;100.00;101032.56;5061867;28;20517;-76
2023/03/19 06:27:59;;;;;;;19.58;8.27;;;;;;;7.54;100.00;101030.31;5053270;28;20476;-75
2023/03/19 06:30:24;;;;;;;18.77;7.93;;;;;;;7.61;100.00;101034.31;5049344;28;20021;-76
2023/03/19 06:32:50;;;;;;;19.40;8.73;;;;;;;7.66;100.00;101040.28;5069292;28;20064;-75
2023/03/19 06:35:16;;;;;;;23.67;9.80;;;;;;;7.70;100.00;101039.16;5061161;28;20050;-76
2023/03/19 06:37:42;;;;;;;20.73;8.55;;;;;;;7.75;100.00;101043.38;5057664;28;20051;-77
2023/03/19 06:40:08;;;;;;;21.33;8.30;;;;;;;7.79;100.00;101037.75;5059422;28;20161;-76
2023/03/19 06:42:33;;;;;;;22.17;9.30;;;;;;;7.84;100.00;101041.00;5050418;28;20567;-76
2023/03/19 06:44:59;;;;;;;23.17;9.20;;;;;;;7.88;100.00;101047.91;5053252;28;20124;-76
2023/03/19 06:47:25;;;;;;;19.15;8.40;;;;;;;7.92;100.00;101047.72;5050548;28;20061;-76
2023/03/19 06:49:50;;;;;;;21.38;8.25;;;;;;;7.94;100.00;101052.06;5054627;28;20516;-75
2023/03/19 06:52:15;;;;;;;21.88;9.68;;;;;;;7.98;100.00;101053.59;5064528;28;20025;-76
2023/03/19 06:54:40;;;;;;;21.45;8.93;;;;;;;8.02;100.00;101056.94;5061778;28;20481;-76
2023/03/19 06:57:06;;;;;;;23.45;9.43;;;;;;;8.03;100.00;101054.16;5055071;28;20021;-75
2023/03/19 06:59:31;;;;;;;23.70;9.15;;;;;;;8.07;100.00;101059.34;5058813;28;20017;-75
2023/03/19 07:01:56;;;;;;;21.60;9.27;;;;;;;8.11;100.00;101059.09;5055119;28;20039;-76
2023/03/19 07:04:22;;;;;;;22.70;9.93;;;;;;;8.18;100.00;101062.25;5054776;28;20025;-76
2023/03/19 07:06:47;;;;;;;22.95;10.10;;;;;;;8.25;100.00;101062.75;5049988;28;20112;-75
2023/03/19 07:09:12;;;;;;;23.35;10.40;;;;;;;8.30;100.00;101066.00;5054899;28;20033;-76
2023/03/19 07:11:38;;;;;;;20.75;9.02;;;;;;;8.33;100.00;101072.06;5054918;28;20029;-76
2023/03/19 07:14:03;;;;;;;22.23;10.00;;;;;;;8.39;100.00;101068.16;5066574;28;20020;-76
2023/03/19 07:16:29;;;;;;;23.00;10.10;;;;;;;8.44;100.00;101071.41;5059417;28;20427;-75
2023/03/19 07:18:55;;;;;;;22.45;10.23;;;;;;;8.50;100.00;101072.88;5056942;28;20081;-77
2023/03/19 07:21:21;;;;;;;20.98;9.35;;;;;;;8.56;100.00;101075.16;5038682;28;20279;-75
2023/03/19 07:23:46;;;;;;;24.92;11.48;;;;;;;8.62;100.00;101079.28;5040170;28;20481;-77
2023/03/19 07:26:12;;;;;;;22.67;9.63;;;;;;;8.66;100.00;101076.31;5035646;28;20013;-77
2023/03/19 07:28:37;;;;;;;23.00;10.35;;;;;;;8.72;100.00;101091.16;5037125;28;21783;-76
2023/03/19 07:31:03;;;;;;;23.95;11.50;;;;;;;8.78;100.00;101093.47;5038808;28;20055;-76
2023/03/19 07:33:28;;;;;;;23.00;11.02;;;;;;;8.83;100.00;101094.06;5038312;28;20471;-77
2023/03/19 07:35:53;;;;;;;23.65;11.23;;;;;;;8.89;100.00;101093.66;5038243;28;20111;-76
2023/03/19 07:38:19;;;;;;;24.27;12.00;;;;;;;8.96;100.00;101099.50;5038043;28;20029;-76
2023/03/19 07:40:44;;;;;;;24.60;12.02;;;;;;;9.01;100.00;101101.91;5025782;28;20028;-75
2023/03/19 07:43:09;;;;;;;23.77;11.02;;;;;;;9.07;100.00;101102.34;5039707;28;20026;-76
2023/03/19 07:45:35;;;;;;;24.05;9.52;;;;;;;9.15;100.00;101101.00;5036539;28;20116;-77
2023/03/19 07:48:02;;;;;;;22.73;11.45;;;;;;;9.23;100.00;101104.09;5032654;28;20100;-78
2023/03/19 07:50:29;;;;;;;25.02;10.10;;;;;;;9.29;100.00;101105.50;5034447;28;20662;-77
2023/03/19 07:52:55;;;;;;;23.33;9.82;;;;;;;9.34;100.00;101104.28;5034790;28;20045;-79
2023/03/19 07:55:21;;;;;;;23.27;9.70;;;;;;;9.38;100.00;101105.78;5033665;28;20052;-77
2023/03/19 07:57:47;;;;;;;25.20;8.82;;;;;;;9.40;100.00;101113.72;5034991;28;20108;-78
2023/03/19 08:00:13;;;;;;;24.60;9.90;;;;;;;9.42;100.00;101112.66;5035773;28;20111;-78
2023/03/19 08:02:38;;;;;;;22.88;8.75;;;;;;;9.42;100.00;101114.50;5038164;28;20031;-77
2023/03/19 08:05:04;;;;;;;24.15;8.05;;;;;;;9.42;100.00;101123.41;5035198;28;20488;-78
2023/03/19 08:07:30;;;;;;;22.02;7.72;;;;;;;9.40;100.00;101117.28;5036138;28;20037;-80
2023/03/19 08:09:57;;;;;;;18.95;7.68;;;;;;;9.40;100.00;101125.31;5018162;28;20045;-78
2023/03/19 08:12:22;;;;;;;24.65;8.63;;;;;;;9.40;100.00;101125.31;5038302;28;20041;-79
2023/03/19 08:14:48;;;;;;;23.52;8.10;;;;;;;9.42;100.00;101126.06;5035189;28;20463;-78
2023/03/19 08:17:13;;;;;;;24.15;9.13;;;;;;;9.41;100.00;101124.38;5037892;28;20048;-76
2023/03/19 08:19:38;;;;;;;20.00;9.00;;;;;;;9.44;100.00;101125.97;5038092;28;20045;-77
2023/03/19 08:22:04;;;;;;;23.35;8.60;;;;;;;9.44;100.00;101126.88;5039391;28;20032;-76
2023/03/19 08:24:30;;;;;;;25.58;9.23;;;;;;;9.43;100.00;101135.84;5045575;28;20052;-76
2023/03/19 08:26:55;;;;;;;23.23;8.70;;;;;;;9.42;100.00;101133.28;5046080;28;20056;-78
2023/03/19 08:29:20;;;;;;;24.70;9.82;;;;;;;9.41;100.00;101136.91;5044319;28;20441;-78
2023/03/19 08:31:46;;;;;;;23.02;8.95;;;;;;;9.44;100.00;101134.91;5041632;28;20447;-77
2023/03/19 08:34:11;;;;;;;24.63;9.45;;;;;;;9.47;100.00;101136.50;5044301;28;20083;-76
2023/03/19 08:36:36;;;;;;;23.42;8.32;;;;;;;9.54;100.00;101132.47;5044642;28;20060;-77
2023/03/19 08:39:03;;;;;;;23.70;9.30;;;;;;;9.61;100.00;101136.47;5046985;28;20954;-77
2023/03/19 08:41:28;;;;;;;23.45;8.60;;;;;;;9.71;100.00;101135.91;5046339;28;20536;-75
2023/03/19 08:43:54;;;;;;;25.10;8.27;;;;;;;9.78;100.00;101142.56;5047844;28;20060;-77
2023/03/19 08:46:19;;;;;;;22.95;7.68;;;;;;;9.89;100.00;101147.25;5047418;28;20483;-79
2023/03/19 08:48:45;;;;;;;25.23;8.05;;;;;;;9.95;100.00;101147.69;5045654;28;20032;-75
2023/03/19 08:51:10;;;;;;;22.52;7.28;;;;;;;10.02;100.00;101158.06;5051358;28;20112;-79
2023/03/19 08:53:37;;;;;;;20.50;7.57;;;;;;;10.06;100.00;101167.59;5049186;28;20123;-79
2023/03/19 08:56:05;;;;;;;24.67;8.57;;;;;;;10.11;100.00;101163.66;5049103;28;20395;-75
2023/03/19 08:58:30;;;;;;;19.90;7.93;;;;;;;10.15;100.00;101158.97;5047480;28;20108;-77
2023/03/19 09:01:11;;;;;;;24.08;7.40;;;;;;;10.22;100.00;101164.75;5046946;28;20139;-76
2023/03/19 09:03:37;;;;;;;25.40;7.65;;;;;;;10.26;100.00;101171.66;5044634;28;20039;-77
2023/03/19 09:06:05;;;;;;;25.77;7.78;;;;;;;10.30;100.00;101173.19;5047925;28;20028;-79
2023/03/19 09:08:31;;;;;;;25.77;7.75;;;;;;;10.32;100.00;101169.44;5044077;28;20056;-76
2023/03/19 09:10:57;;;;;;;22.75;7.78;;;;;;;10.37;100.00;101173.69;5044567;28;20048;-78
2023/03/19 09:13:22;;;;;;;25.85;8.13;;;;;;;10.40;100.00;101176.16;5044608;28;20114;-78
2023/03/19 09:15:48;;;;;;;22.40;7.50;;;;;;;10.43;100.00;101170.56;5036947;28;20033;-76
2023/03/19 09:18:13;;;;;;;27.25;7.88;;;;;;;10.42;100.00;101177.75;5041986;28;20025;-76
2023/03/19 09:20:38;;;;;;;22.13;6.93;;;;;;;10.45;100.00;101182.94;5042212;28;20701;-76
2023/03/19 09:23:04;;;;;;;21.50;8.10;;;;;;;10.45;100.00;101182.06;5046422;28;20121;-76
2023/03/19 09:25:29;;;;;;;29.58;8.93;;;;;;;10.44;100.00;101186.59;5044764;28;20021;-79
2023/03/19 09:27:55;;;;;;;24.17;9.23;;;;;;;10.51;100.00;101186.16;5044848;28;20082;-80
2023/03/19 09:30:21;;;;;;;26.15;8.98;;;;;;;10.58;100.00;101187.47;5047257;28;20039;-76
2023/03/19 09:32:46;;;;;;;24.23;8.45;;;;;;;10.69;100.00;101182.25;5045171;28;20037;-79
2023/03/19 09:35:12;;;;;;;24.77;8.80;;;;;;;10.81;100.00;101191.28;5045386;28;20044;-76
2023/03/19 09:37:37;;;;;;;22.27;8.07;;;;;;;10.90;100.00;101197.84;5045285;28;20040;-79
2023/03/19 09:40:04;;;;;;;22.30;7.97;;;;;;;11.02;100.00;101197.00;5043998;28;20046;-76
2023/03/19 09:42:43;;;;;;;19.27;7.57;;;;;;;11.11;100.00;101200.88;5045276;28;20464;-76
2023/03/19 09:45:15;;;;;;;24.95;8.75;;;;;;;11.16;100.00;101199.59;5042896;28;21140;-79
2023/03/19 09:47:42;;;;;;;24.92;8.75;;;;;;;11.17;100.00;101206.69;5041730;28;20108;-79
2023/03/19 09:50:15;;;;;;;25.90;8.80;;;;;;;11.18;100.00;101208.41;5039987;28;20142;-76
2023/03/19 09:52:46;;;;;;;28.92;8.02;;;;;;;11.16;100.00;101204.13;5039755;28;20037;-76
2023/03/19 09:55:26;;;;;;;25.88;8.02;;;;;;;11.17;99.58;101208.50;5042405;28;20596;-77
2023/03/19 09:57:54;;;;;;;24.23;9.00;;;;;;;11.21;100.00;101211.84;5042203;28;20041;-75
2023/03/19 10:00:26;;;;;;;26.23;7.88;;;;;;;11.22;100.00;101209.06;5041796;28;20028;-77
2023/03/19 10:03:19;;;;;;;23.85;7.45;;;;;;;11.24;100.00;101209.78;5041898;28;20047;-78
2023/03/19 10:06:06;;;;;;;21.25;7.03;;;;;;;11.23;99.55;101217.97;5038135;28;20074;-79
2023/03/19 10:08:55;;;;;;;22.52;7.07;;;;;;;11.26;99.89;101217.75;5039949;28;20131;-79
2023/03/19 10:11:41;;;;;;;23.27;6.97;;;;;;;11.25;100.00;101219.59;5045626;28;20538;-75
2023/03/19 10:14:26;;;;;;;21.95;6.40;;;;;;;11.25;100.00;101219.59;5044702;28;20033;-76
2023/03/19 10:16:53;;;;;;;21.58;7.00;;;;;;;11.25;100.00;101216.91;5045349;28;20032;-78
2023/03/19 10:19:23;;;;;;;24.02;6.88;;;;;;;11.34;100.00;101218.09;5044721;28;20068;-77
2023/03/19 10:21:52;;;;;;;;;;;;;;;11.41;100.00;101219.38;5044162;28;20041;-77
2023/03/19 10:24:23;;;;;;;21.67;6.10;;;;;;;11.47;100.00;101213.56;5047255;28;19967;-78
2023/03/19 10:26:57;;;;;;;20.90;6.53;;;;;;;11.52;98.69;101218.59;5042860;28;20519;-76
2023/03/19 10:29:23;;;;;;;22.27;6.38;;;;;;;11.55;99.56;101221.06;5040003;28;20062;-77
2023/03/19 10:32:23;;;;;;;18.90;5.85;;;;;;;11.58;98.92;101220.88;5042532;28;20514;-79
2023/03/19 10:34:52;;;;;;;22.25;5.80;;;;;;;11.60;96.70;101218.94;5036056;28;20037;-76
2023/03/19 10:37:25;;;;;;;28.80;6.60;;;;;;;11.62;96.92;101227.75;5040466;28;20047;-79
2023/03/19 10:39:56;;;;;;;21.13;5.65;;;;;;;11.63;96.62;101229.47;5041330;28;20086;-79
2023/03/19 10:43:02;;;;;;;24.10;6.03;;;;;;;11.67;96.24;101232.78;5043924;28;20032;-78
2023/03/19 10:45:31;;;;;;;20.52;6.20;;;;;;;11.70;97.90;101224.53;5041298;28;20029;-77
2023/03/19 10:47:59;;;;;;;21.10;6.57;;;;;;;11.72;97.73;101236.03;5050348;28;20055;-77
2023/03/19 10:50:37;;;;;;;24.55;6.57;;;;;;;11.77;97.08;101231.19;5041109;28;20039;-76
2023/03/19 10:53:26;;;;;;;19.17;6.22;;;;;;;11.84;97.26;101240.50;5044418;28;20024;-79
2023/03/19 10:55:59;;;;;;;22.23;7.13;;;;;;;11.89;95.70;101241.06;5047207;28;20036;-76
2023/03/19 10:58:27;;;;;;;19.80;6.55;;;;;;;11.98;95.37;101238.72;5042337;28;20028;-75
2023/03/19 11:01:02;;;;;;;23.13;6.85;;;;;;;12.02;95.65;101237.50;5044979;28;20083;-76
2023/03/19 11:03:30;;;;;;;20.98;6.60;;;;;;;12.05;96.54;101248.06;5042994;28;20064;-78
2023/03/19 11:06:04;;;;;;;15.30;5.35;;;;;;;12.06;95.74;101236.28;5044147;28;20051;-76
2023/03/19 11:08:35;;;;;;;19.60;6.72;;;;;;;12.05;93.51;101234.59;5042126;28;20048;-77
2023/03/19 11:11:00;;;;;;;18.80;6.22;;;;;;;12.04;92.86;101241.78;5045107;28;20438;-76
2023/03/19 11:13:26;;;;;;;27.08;7.97;;;;;;;12.04;92.89;101246.34;5044354;28;20094;-78
2023/03/19 11:15:56;;;;;;;24.00;8.77;;;;;;;12.03;94.67;101250.00;5041492;28;20088;-79
2023/03/19 11:18:22;;;;;;;;;;;;;;;12.02;95.99;101251.84;5040263;28;20032;-77